Time;durP1;ratioP1;P1;durP2;ratioP2;P2;SDS_P1;SDS_P2;PMS_P1;PMS_P2;Temp;Humidity;BMP_temperature;BMP_pressure;BME280_temperature;BME280_humidity;BME280_pressure;Samples;Min_cycle;Max_cycle;Signal;HPM_P1;HPM_P2
2022/11/15 00:01:26;;;;;;;9.07;8.20;;;;;;;;;;4967958;28;20026;-69
2022/11/15 00:04:10;;;;;;;9.10;8.30;;;;;;;;;;4973019;28;20033;-69
2022/11/15 00:06:54;;;;;;;9.10;8.50;;;;;;;;;;4978381;28;20383;-69
2022/11/15 00:09:38;;;;;;;8.88;8.05;;;;;;;;;;4967138;28;20038;-69
2022/11/15 00:12:22;;;;;;;8.93;8.02;;;;;;;;;;4972549;28;20026;-70
2022/11/15 00:15:08;;;;;;;9.57;8.63;;;;;;;;;;4973372;28;20038;-69
2022/11/15 00:17:52;;;;;;;9.88;8.95;;;;;;;;;;4972263;28;20067;-69
2022/11/15 00:20:37;;;;;;;10.00;9.00;;;;;;;;;;4965097;28;20039;-69
2022/11/15 00:23:21;;;;;;;12.38;9.57;;;;;;;;;;4977778;28;20037;-69
2022/11/15 00:26:06;;;;;;;10.25;8.85;;;;;;;;;;4970795;28;20506;-69
2022/11/15 00:28:52;;;;;;;9.80;8.90;;;;;;;;;;4966773;28;20043;-69
2022/11/15 00:31:36;;;;;;;9.93;9.13;;;;;;;;;;4973144;28;20065;-70
2022/11/15 00:34:20;;;;;;;10.50;9.50;;;;;;;;;;4974548;28;20023;-69
2022/11/15 00:37:06;;;;;;;11.45;10.43;;;;;;;;;;4970846;28;20041;-69
2022/11/15 00:39:50;;;;;;;12.38;11.07;;;;;;;;;;4959811;28;20038;-69
2022/11/15 00:42:34;;;;;;;12.52;10.20;;;;;;;;;;4977072;28;20072;-69
2022/11/15 00:45:18;;;;;;;10.90;9.93;;;;;;;;;;4969855;28;20118;-69
2022/11/15 00:48:03;;;;;;;10.05;9.25;;;;;;;;;;4976061;28;20085;-70
2022/11/15 00:50:48;;;;;;;11.55;10.30;;;;;;;;;;4979145;28;20027;-69
2022/11/15 00:53:32;;;;;;;12.10;10.90;;;;;;;;;;4967756;28;20034;-70
2022/11/15 00:56:16;;;;;;;12.05;10.77;;;;;;;;;;4971079;28;20571;-69
2022/11/15 00:59:00;;;;;;;12.27;10.82;;;;;;;;;;4974909;28;20057;-69
2022/11/15 01:01:45;;;;;;;12.30;11.13;;;;;;;;;;4967795;28;20449;-69
2022/11/15 01:04:29;;;;;;;10.15;9.45;;;;;;;;;;4968316;28;20090;-69
2022/11/15 01:07:13;;;;;;;8.88;8.25;;;;;;;;;;4976395;28;20042;-69
2022/11/15 01:09:58;;;;;;;9.68;8.95;;;;;;;;;;4967433;28;20390;-69
2022/11/15 01:12:42;;;;;;;11.35;10.23;;;;;;;;;;4971034;28;20050;-69
2022/11/15 01:15:27;;;;;;;10.95;9.95;;;;;;;;;;4973715;28;20081;-69
2022/11/15 01:18:11;;;;;;;11.57;10.48;;;;;;;;;;4977999;28;20133;-70
2022/11/15 01:20:55;;;;;;;9.82;9.02;;;;;;;;;;4972641;28;20114;-69
2022/11/15 01:23:40;;;;;;;11.18;10.07;;;;;;;;;;4978016;28;20489;-69
2022/11/15 01:26:25;;;;;;;11.45;10.35;;;;;;;;;;4972152;28;20050;-69
2022/11/15 01:29:09;;;;;;;10.80;9.80;;;;;;;;;;4969984;28;20033;-69
2022/11/15 01:31:53;;;;;;;11.75;10.63;;;;;;;;;;4978127;28;20046;-69
2022/11/15 01:34:37;;;;;;;11.82;10.63;;;;;;;;;;4977576;28;20048;-69
2022/11/15 01:37:22;;;;;;;11.00;9.90;;;;;;;;;;4970275;28;20050;-69
2022/11/15 01:40:07;;;;;;;15.45;11.32;;;;;;;;;;4965504;28;20089;-69
2022/11/15 01:42:51;;;;;;;11.68;10.65;;;;;;;;;;4978252;28;20510;-69
2022/11/15 01:45:35;;;;;;;12.23;10.73;;;;;;;;;;4969988;28;20101;-69
2022/11/15 01:48:21;;;;;;;11.48;10.45;;;;;;;;;;4976235;28;20060;-69
2022/11/15 01:51:11;;;;;;;12.10;10.95;;;;;;;;;;4977050;28;20450;-69
2022/11/15 01:54:00;;;;;;;12.15;11.05;;;;;;;;;;4972970;28;20041;-69
2022/11/15 01:56:51;;;;;;;11.38;10.32;;;;;;;;;;4972000;28;20050;-70
2022/11/15 01:59:39;;;;;;;12.05;10.88;;;;;;;;;;4972106;28;20061;-69
2022/11/15 02:02:24;;;;;;;14.52;10.88;;;;;;;;;;4972338;28;20110;-70
2022/11/15 02:05:08;;;;;;;12.80;10.75;;;;;;;;;;4970507;28;20034;-69
2022/11/15 02:07:52;;;;;;;15.68;10.85;;;;;;;;;;4983109;28;20069;-69
2022/11/15 02:10:36;;;;;;;11.85;10.40;;;;;;;;;;4970589;28;20627;-69
2022/11/15 02:13:20;;;;;;;12.95;11.77;;;;;;;;;;4971202;28;20446;-69
2022/11/15 02:16:19;;;;;;;14.52;10.95;;;;;;;;;;4981758;28;20043;-69
2022/11/15 02:19:28;;;;;;;13.27;11.15;;;;;;;;;;4968438;28;20033;-69
2022/11/15 02:22:40;;;;;;;11.88;10.68;;;;;;;;;;4972763;28;20026;-70
2022/11/15 02:25:39;;;;;;;11.77;10.63;;;;;;;;;;4970576;28;20131;-69
2022/11/15 02:28:47;;;;;;;12.50;11.43;;;;;;;;;;4968442;28;20494;-69
2022/11/15 02:31:50;;;;;;;12.38;10.43;;;;;;;;;;4974722;28;20031;-69
2022/11/15 02:34:49;;;;;;;12.50;11.20;;;;;;;;;;4975496;28;20449;-69
2022/11/15 02:37:57;;;;;;;11.18;10.18;;;;;;;;;;4959389;28;20058;-70
2022/11/15 02:40:51;;;;;;;12.70;10.80;;;;;;;;;;4974560;28;20030;-69
2022/11/15 02:43:57;;;;;;;11.60;10.52;;;;;;;;;;4969741;28;20096;-69
2022/11/15 02:49:54;;;;;;;12.70;11.30;;;;;;;;;;4976257;28;20038;-70
2022/11/15 02:52:39;;;;;;;11.75;10.48;;;;;;;;;;4967945;28;20070;-69
2022/11/15 02:55:26;;;;;;;12.75;11.07;;;;;;;;;;4971562;28;20029;-69
2022/11/15 02:58:12;;;;;;;11.65;10.55;;;;;;;;;;4979916;28;20031;-69
2022/11/15 03:01:18;;;;;;;11.40;10.32;;;;;;;;;;4972054;28;20037;-69
2022/11/15 03:04:41;;;;;;;11.80;10.60;;;;;;;;;;4972650;28;20437;-69
2022/11/15 03:07:29;;;;;;;12.40;11.10;;;;;;;;;;4968721;28;20121;-69
2022/11/15 03:10:24;;;;;;;12.75;11.32;;;;;;;;;;4975843;28;20053;-69
2022/11/15 03:13:08;;;;;;;15.57;13.55;;;;;;;;;;4978041;28;20074;-70
2022/11/15 03:16:05;;;;;;;13.85;12.52;;;;;;;;;;4975571;28;20669;-69
2022/11/15 03:19:00;;;;;;;14.25;12.70;;;;;;;;;;4967480;28;20034;-69
2022/11/15 03:21:47;;;;;;;18.23;12.73;;;;;;;;;;4975824;28;20490;-69
2022/11/15 03:24:35;;;;;;;15.18;12.85;;;;;;;;;;4973001;28;20459;-69
2022/11/15 03:27:25;;;;;;;13.63;11.70;;;;;;;;;;4972127;28;20609;-69
2022/11/15 03:30:10;;;;;;;19.70;13.70;;;;;;;;;;4970953;28;20034;-69
2022/11/15 03:32:57;;;;;;;18.50;15.50;;;;;;;;;;4975598;28;20039;-69
2022/11/15 03:35:44;;;;;;;20.00;15.13;;;;;;;;;;4966282;28;20065;-69
2022/11/15 03:38:32;;;;;;;13.93;12.60;;;;;;;;;;4966189;28;20047;-69
2022/11/15 03:41:33;;;;;;;22.45;16.48;;;;;;;;;;4976346;28;20039;-69
2022/11/15 03:44:28;;;;;;;19.65;15.63;;;;;;;;;;4970583;28;20038;-69
2022/11/15 03:47:28;;;;;;;21.80;17.83;;;;;;;;;;4960660;28;20069;-69
2022/11/15 03:50:17;;;;;;;24.60;19.75;;;;;;;;;;4973974;28;20069;-69
2022/11/15 03:53:02;;;;;;;19.58;17.52;;;;;;;;;;4979643;28;20045;-69
2022/11/15 03:55:46;;;;;;;17.58;15.77;;;;;;;;;;4968962;28;20039;-69
2022/11/15 03:58:30;;;;;;;18.88;16.33;;;;;;;;;;4969965;28;20038;-69
2022/11/15 04:01:15;;;;;;;18.85;16.70;;;;;;;;;;4973403;28;20073;-69
2022/11/15 04:03:59;;;;;;;22.67;19.08;;;;;;;;;;4965228;28;20039;-69
2022/11/15 04:06:43;;;;;;;19.75;17.63;;;;;;;;;;4969041;28;20051;-69
2022/11/15 04:09:28;;;;;;;24.40;17.45;;;;;;;;;;4964687;28;20038;-69
2022/11/15 04:12:12;;;;;;;24.80;18.10;;;;;;;;;;4967967;28;20115;-69
2022/11/15 04:15:08;;;;;;;19.98;17.38;;;;;;;;;;4972796;28;20034;-70
2022/11/15 04:17:54;;;;;;;18.95;16.83;;;;;;;;;;4965982;28;20085;-69
2022/11/15 04:24:11;;;;;;;20.20;16.30;;;;;;;;;;4973163;28;20043;-69
2022/11/15 04:26:49;;;;;;;24.08;17.25;;;;;;;;;;4968925;28;20410;-69
2022/11/15 04:29:36;;;;;;;19.50;15.93;;;;;;;;;;4974043;28;20901;-69
2022/11/15 04:32:21;;;;;;;19.00;16.10;;;;;;;;;;4973074;28;20577;-69
2022/11/15 04:35:05;;;;;;;14.88;13.43;;;;;;;;;;4966033;28;20184;-69
2022/11/15 04:37:49;;;;;;;14.32;12.82;;;;;;;;;;4974894;28;20406;-69
2022/11/15 04:40:34;;;;;;;13.60;12.20;;;;;;;;;;4972104;28;20174;-69
2022/11/15 04:43:18;;;;;;;14.63;13.13;;;;;;;;;;4971274;28;20126;-69
2022/11/15 04:46:05;;;;;;;12.98;11.77;;;;;;;;;;4969312;28;20438;-69
2022/11/15 04:48:50;;;;;;;12.35;11.13;;;;;;;;;;4979910;28;20477;-69
2022/11/15 04:51:34;;;;;;;12.65;11.35;;;;;;;;;;4976807;28;20038;-69
2022/11/15 04:54:18;;;;;;;12.48;11.20;;;;;;;;;;4970244;28;20031;-69
2022/11/15 04:57:03;;;;;;;12.95;10.95;;;;;;;;;;4977660;28;20081;-69
2022/11/15 04:59:47;;;;;;;11.75;10.73;;;;;;;;;;4979415;28;20057;-69
2022/11/15 05:05:34;;;;;;;11.75;10.57;;;;;;;;;;4975493;28;20041;-69
2022/11/15 05:08:19;;;;;;;13.43;11.95;;;;;;;;;;4980499;28;20046;-69
2022/11/15 05:11:04;;;;;;;14.13;12.77;;;;;;;;;;4973316;28;20564;-69
2022/11/15 05:13:49;;;;;;;16.50;13.70;;;;;;;;;;4972188;28;20039;-69
2022/11/15 05:16:33;;;;;;;21.58;18.35;;;;;;;;;;4980078;28;20034;-69
2022/11/15 05:19:17;;;;;;;22.08;17.95;;;;;;;;;;4979352;28;20041;-68
2022/11/15 05:22:02;;;;;;;52.13;32.78;;;;;;;;;;4970350;28;20409;-68
2022/11/15 05:24:46;;;;;;;27.08;17.80;;;;;;;;;;4974398;28;20387;-69
2022/11/15 05:27:30;;;;;;;44.10;28.40;;;;;;;;;;4980463;28;20066;-69
2022/11/15 05:30:16;;;;;;;17.33;14.30;;;;;;;;;;4974594;28;20115;-69
2022/11/15 05:33:00;;;;;;;16.45;14.73;;;;;;;;;;4969502;28;20037;-69
2022/11/15 05:35:54;;;;;;;17.08;14.48;;;;;;;;;;4981736;28;20066;-69
2022/11/15 05:38:38;;;;;;;32.88;17.98;;;;;;;;;;4964395;28;20198;-68
2022/11/15 05:41:59;;;;;;;21.08;15.93;;;;;;;;;;4968647;28;20082;-68
2022/11/15 05:44:48;;;;;;;15.05;13.38;;;;;;;;;;4910169;29;20059;-69
2022/11/15 05:47:35;;;;;;;15.80;12.68;;;;;;;;;;4906812;29;20138;-69
2022/11/15 05:50:19;;;;;;;10.77;9.85;;;;;;;;;;4907798;29;20485;-68
2022/11/15 05:53:03;;;;;;;24.55;16.27;;;;;;;;;;4909965;29;20107;-69
2022/11/15 05:55:48;;;;;;;21.48;14.57;;;;;;;;;;4892056;29;20083;-69
2022/11/15 05:58:33;;;;;;;22.83;15.30;;;;;;;;;;4908684;29;20059;-68
2022/11/15 06:01:17;;;;;;;23.50;15.65;;;;;;;;;;4909171;29;20056;-69
2022/11/15 06:04:02;;;;;;;17.83;14.65;;;;;;;;;;4907647;29;20074;-69
2022/11/15 06:06:46;;;;;;;16.25;14.13;;;;;;;;;;4909963;29;20183;-69
2022/11/15 06:09:30;;;;;;;14.63;12.90;;;;;;;;;;4910257;29;20036;-69
2022/11/15 06:12:14;;;;;;;13.77;12.38;;;;;;;;;;4907904;29;20047;-68
2022/11/15 06:14:58;;;;;;;23.15;12.00;;;;;;;;;;4895430;29;20099;-73
2022/11/15 06:17:42;;;;;;;13.00;11.43;;;;;;;;;;4907634;29;20048;-76
2022/11/15 06:20:28;;;;;;;18.10;12.70;;;;;;;;;;4925171;28;20322;-75
2022/11/15 06:23:13;;;;;;;12.20;11.00;;;;;;;;;;4965885;28;20084;-75
2022/11/15 06:26:01;;;;;;;15.45;12.40;;;;;;;;;;4977255;28;20037;-75
2022/11/15 06:28:45;;;;;;;13.70;12.30;;;;;;;;;;4979733;28;20129;-74
2022/11/15 06:31:29;;;;;;;13.52;12.13;;;;;;;;;;4971015;28;20289;-74
2022/11/15 06:34:14;;;;;;;12.70;11.50;;;;;;;;;;4978266;28;20110;-74
2022/11/15 06:36:58;;;;;;;11.65;10.60;;;;;;;;;;4966023;28;20031;-74
2022/11/15 06:39:42;;;;;;;12.52;11.15;;;;;;;;;;4958521;28;20133;-74
2022/11/15 06:42:26;;;;;;;14.55;11.85;;;;;;;;;;4976319;28;20097;-74
2022/11/15 06:45:11;;;;;;;19.02;12.18;;;;;;;;;;4970439;28;20096;-75
2022/11/15 06:47:55;;;;;;;13.20;11.93;;;;;;;;;;4972189;28;20421;-74
2022/11/15 06:50:39;;;;;;;13.35;12.15;;;;;;;;;;4963233;28;20402;-74
2022/11/15 06:53:24;;;;;;;15.98;13.30;;;;;;;;;;4973990;28;20048;-74
2022/11/15 06:56:09;;;;;;;20.05;15.75;;;;;;;;;;4972922;28;20116;-74
2022/11/15 06:58:53;;;;;;;18.58;14.18;;;;;;;;;;4983085;28;20069;-74
2022/11/15 07:01:37;;;;;;;19.75;14.15;;;;;;;;;;4967575;28;20041;-74
2022/11/15 07:04:21;;;;;;;15.23;13.73;;;;;;;;;;4975379;28;20050;-74
2022/11/15 07:07:05;;;;;;;14.20;12.85;;;;;;;;;;4979743;28;20041;-74
2022/11/15 07:09:49;;;;;;;16.08;12.55;;;;;;;;;;4972538;28;20041;-74
2022/11/15 07:12:34;;;;;;;16.98;13.95;;;;;;;;;;4973864;28;20049;-74
2022/11/15 07:15:20;;;;;;;16.20;13.25;;;;;;;;;;4969545;28;20030;-74
2022/11/15 07:18:04;;;;;;;14.95;13.35;;;;;;;;;;4971781;28;20244;-74
2022/11/15 07:20:48;;;;;;;14.40;12.90;;;;;;;;;;4978940;28;20049;-74
2022/11/15 07:23:35;;;;;;;13.98;12.57;;;;;;;;;;4969952;28;20041;-75
2022/11/15 07:26:19;;;;;;;16.92;13.50;;;;;;;;;;4973592;28;20656;-74
2022/11/15 07:29:03;;;;;;;17.20;13.57;;;;;;;;;;4973695;28;20069;-74
2022/11/15 07:31:50;;;;;;;16.52;13.25;;;;;;;;;;4976255;28;20052;-75
2022/11/15 07:34:34;;;;;;;14.35;12.93;;;;;;;;;;4966854;28;20081;-74
2022/11/15 07:37:18;;;;;;;14.23;12.93;;;;;;;;;;4976336;28;20035;-74
2022/11/15 07:40:03;;;;;;;16.38;14.75;;;;;;;;;;4964605;28;20034;-75
2022/11/15 07:42:53;;;;;;;14.57;13.20;;;;;;;;;;4977306;28;20066;-74
2022/11/15 07:45:44;;;;;;;14.65;13.15;;;;;;;;;;4968203;28;20030;-75
2022/11/15 07:48:29;;;;;;;15.30;13.25;;;;;;;;;;4972338;28;20082;-74
2022/11/15 07:51:14;;;;;;;14.23;12.82;;;;;;;;;;4982015;28;20385;-74
2022/11/15 07:53:59;;;;;;;18.88;12.65;;;;;;;;;;4968957;28;20121;-75
2022/11/15 07:56:43;;;;;;;14.55;12.65;;;;;;;;;;4969220;28;20037;-75
2022/11/15 07:59:27;;;;;;;15.68;13.52;;;;;;;;;;4981718;28;20049;-75
2022/11/15 08:02:11;;;;;;;16.15;14.45;;;;;;;;;;4973185;28;20118;-75
2022/11/15 08:04:56;;;;;;;14.90;12.07;;;;;;;;;;4973232;28;20062;-75
2022/11/15 08:07:40;;;;;;;11.80;10.57;;;;;;;;;;4955600;28;20495;-75
2022/11/15 08:10:25;;;;;;;13.05;11.80;;;;;;;;;;4968830;28;20041;-74
2022/11/15 08:13:11;;;;;;;12.27;11.02;;;;;;;;;;4976354;28;20035;-75
2022/11/15 08:16:05;;;;;;;12.38;11.02;;;;;;;;;;4971010;28;20030;-75
2022/11/15 08:18:49;;;;;;;14.18;12.73;;;;;;;;;;4971621;28;20300;-75
2022/11/15 08:21:33;;;;;;;12.88;11.77;;;;;;;;;;4984571;28;20054;-75
2022/11/15 08:24:18;;;;;;;15.07;13.73;;;;;;;;;;4974759;28;20505;-75
2022/11/15 08:27:02;;;;;;;16.52;14.00;;;;;;;;;;4972549;28;20046;-75
2022/11/15 08:29:49;;;;;;;21.60;18.58;;;;;;;;;;4985720;28;20137;-75
2022/11/15 08:32:34;;;;;;;14.70;13.18;;;;;;;;;;4974190;28;20517;-75
2022/11/15 08:35:19;;;;;;;13.52;11.48;;;;;;;;;;4975183;28;20041;-75
2022/11/15 08:38:04;;;;;;;12.35;11.15;;;;;;;;;;4979090;28;20066;-74
2022/11/15 08:40:48;;;;;;;12.43;11.18;;;;;;;;;;4964984;28;20109;-75
2022/11/15 08:43:33;;;;;;;15.70;11.20;;;;;;;;;;4967578;28;20062;-75
2022/11/15 08:46:18;;;;;;;13.57;12.27;;;;;;;;;;4984647;28;20046;-75
2022/11/15 08:49:02;;;;;;;15.90;12.95;;;;;;;;;;4980505;28;20046;-75
2022/11/15 08:51:46;;;;;;;14.73;13.35;;;;;;;;;;4974312;28;20044;-75
2022/11/15 08:54:31;;;;;;;15.02;13.32;;;;;;;;;;4974695;28;20223;-75
2022/11/15 08:57:15;;;;;;;12.23;11.13;;;;;;;;;;4981475;28;20046;-75
2022/11/15 08:59:59;;;;;;;11.60;10.52;;;;;;;;;;4958794;28;20390;-75
2022/11/15 09:02:44;;;;;;;11.05;10.10;;;;;;;;;;4975951;28;20038;-75
2022/11/15 09:05:28;;;;;;;14.00;12.15;;;;;;;;;;4970344;28;20400;-75
2022/11/15 09:08:12;;;;;;;13.13;11.18;;;;;;;;;;4971375;28;20101;-75
2022/11/15 09:10:57;;;;;;;12.95;11.27;;;;;;;;;;4978348;28;20035;-75
2022/11/15 09:13:41;;;;;;;11.63;10.55;;;;;;;;;;4978281;28;20074;-75
2022/11/15 09:16:26;;;;;;;11.13;10.13;;;;;;;;;;4970107;28;20089;-75
2022/11/15 09:19:11;;;;;;;12.30;10.35;;;;;;;;;;4975473;28;20379;-75
2022/11/15 09:21:55;;;;;;;15.75;10.63;;;;;;;;;;4983372;28;20041;-75
2022/11/15 09:24:39;;;;;;;13.80;11.50;;;;;;;;;;4971800;28;20049;-74
2022/11/15 09:27:28;;;;;;;15.77;13.20;;;;;;;;;;4979135;28;20057;-75
2022/11/15 09:30:13;;;;;;;25.50;16.58;;;;;;;;;;4981851;28;20076;-75
2022/11/15 09:32:57;;;;;;;13.45;12.05;;;;;;;;;;4979370;28;20064;-75
2022/11/15 09:35:41;;;;;;;14.35;12.63;;;;;;;;;;4969510;28;20227;-75
2022/11/15 09:38:26;;;;;;;12.75;11.55;;;;;;;;;;4976050;28;20081;-75
2022/11/15 09:41:13;;;;;;;14.10;11.65;;;;;;;;;;4976291;28;20372;-75
2022/11/15 09:44:16;;;;;;;12.00;10.65;;;;;;;;;;4975233;28;20042;-75
2022/11/15 09:47:25;;;;;;;12.65;11.38;;;;;;;;;;4978042;28;20171;-75
2022/11/15 09:50:11;;;;;;;11.52;10.63;;;;;;;;;;4975228;28;20566;-75
2022/11/15 09:52:41;;;;;;;11.93;10.45;;;;;;;;;;4981287;28;20505;-75
2022/11/15 09:55:10;;;;;;;12.18;11.07;;;;;;;;;;4981226;28;20094;-75
2022/11/15 09:58:21;;;;;;;12.50;11.20;;;;;;;;;;4969310;28;20031;-75
2022/11/15 10:00:52;;;;;;;11.48;10.30;;;;;;;;;;4878830;29;20496;-75
2022/11/15 10:03:30;;;;;;;11.23;10.13;;;;;;;;;;4885126;29;20037;-75
2022/11/15 10:06:01;;;;;;;11.77;10.63;;;;;;;;;;4881130;29;20088;-75
2022/11/15 10:08:46;;;;;;;11.30;10.27;;;;;;;;;;4880126;29;20297;-75
2022/11/15 10:11:23;;;;;;;13.65;12.27;;;;;;;;;;4884971;29;20088;-75
2022/11/15 10:13:50;;;;;;;13.30;10.73;;;;;;;;;;4881876;29;20524;-75
2022/11/15 10:16:28;;;;;;;12.07;10.85;;;;;;;;;;4880323;29;20056;-75
2022/11/15 10:19:06;;;;;;;13.02;11.30;;;;;;;;;;4881567;29;20641;-75
2022/11/15 10:22:00;;;;;;;12.45;11.43;;;;;;;;;;4871373;29;20047;-75
2022/11/15 10:24:28;;;;;;;14.82;12.07;;;;;;;;;;4881095;29;20120;-75
2022/11/15 10:26:55;;;;;;;10.70;9.80;;;;;;;;;;4875783;29;20052;-75
2022/11/15 10:29:23;;;;;;;10.18;9.18;;;;;;;;;;4881809;29;20040;-75
2022/11/15 10:31:49;;;;;;;10.55;9.60;;;;;;;;;;4936460;28;20518;-75
2022/11/15 10:34:20;;;;;;;12.27;10.85;;;;;;;;;;4970871;28;20141;-74
2022/11/15 10:36:57;;;;;;;12.02;10.93;;;;;;;;;;4974820;28;20070;-75
2022/11/15 10:39:23;;;;;;;12.07;10.77;;;;;;;;;;4978814;28;20546;-75
2022/11/15 10:41:48;;;;;;;15.45;10.90;;;;;;;;;;4977252;28;20126;-75
2022/11/15 10:44:17;;;;;;;11.88;10.63;;;;;;;;;;4979584;28;20487;-75
2022/11/15 10:46:48;;;;;;;12.30;11.07;;;;;;;;;;4967420;28;20142;-75
2022/11/15 10:49:27;;;;;;;14.52;13.07;;;;;;;;;;4978343;28;20046;-75
2022/11/15 10:51:57;;;;;;;13.02;11.73;;;;;;;;;;4971191;28;20066;-75
2022/11/15 10:54:53;;;;;;;13.10;11.35;;;;;;;;;;4982699;28;20109;-75
2022/11/15 10:57:24;;;;;;;13.25;11.88;;;;;;;;;;4979887;28;20030;-75
2022/11/15 10:59:59;;;;;;;12.80;11.73;;;;;;;;;;4970618;28;20057;-74
2022/11/15 11:02:29;;;;;;;15.68;11.95;;;;;;;;;;4975013;28;20045;-75
2022/11/15 11:04:55;;;;;;;12.95;10.80;;;;;;;;;;4977038;28;20049;-74
2022/11/15 11:07:24;;;;;;;12.02;10.70;;;;;;;;;;4983314;28;20035;-74
2022/11/15 11:10:18;;;;;;;12.13;10.55;;;;;;;;;;4973866;28;20070;-75
2022/11/15 11:12:43;;;;;;;12.05;11.02;;;;;;;;;;4972097;28;20062;-75
2022/11/15 11:15:12;;;;;;;12.57;10.73;;;;;;;;;;4977835;28;20034;-74
2022/11/15 11:17:56;;;;;;;11.95;10.88;;;;;;;;;;4961899;28;20506;-74
2022/11/15 11:20:31;;;;;;;12.25;11.15;;;;;;;;;;4964512;28;20026;-75
2022/11/15 11:23:13;;;;;;;12.80;11.23;;;;;;;;;;4979611;28;20100;-75
2022/11/15 11:26:06;;;;;;;11.55;10.43;;;;;;;;;;4979979;28;20383;-75
2022/11/15 11:28:38;;;;;;;11.45;10.45;;;;;;;;;;4971270;28;20034;-75
2022/11/15 11:31:42;;;;;;;12.32;9.90;;;;;;;;;;4967663;28;20286;-75
2022/11/15 11:34:13;;;;;;;11.70;10.55;;;;;;;;;;4956153;28;20109;-74
2022/11/15 11:37:02;;;;;;;12.93;11.57;;;;;;;;;;4964001;28;20830;-75
2022/11/15 11:39:56;;;;;;;12.93;10.63;;;;;;;;;;4969194;28;20592;-74
2022/11/15 11:42:40;;;;;;;11.98;10.90;;;;;;;;;;4976045;28;20108;-74
2022/11/15 11:45:16;;;;;;;11.02;10.13;;;;;;;;;;4957850;28;20602;-74
2022/11/15 11:47:55;;;;;;;13.80;9.90;;;;;;;;;;4958053;28;20525;-75
2022/11/15 11:50:25;;;;;;;12.40;11.15;;;;;;;;;;4964708;28;20239;-73
2022/11/15 11:53:11;;;;;;;12.00;10.45;;;;;;;;;;4974035;28;20045;-73
2022/11/15 11:55:49;;;;;;;12.88;10.60;;;;;;;;;;4967548;28;20047;-73
2022/11/15 11:58:25;;;;;;;11.63;10.63;;;;;;;;;;4963340;28;20035;-73
2022/11/15 12:00:55;;;;;;;12.98;10.82;;;;;;;;;;4956652;28;20038;-72
2022/11/15 12:03:39;;;;;;;12.68;11.20;;;;;;;;;;4973962;28;20035;-73
2022/11/15 12:06:29;;;;;;;11.70;10.70;;;;;;;;;;4971314;28;20073;-73
2022/11/15 12:09:17;;;;;;;12.95;11.65;;;;;;;;;;4969128;28;20515;-73
2022/11/15 12:11:48;;;;;;;13.30;11.73;;;;;;;;;;4963383;28;20043;-73
2022/11/15 12:14:31;;;;;;;13.32;11.77;;;;;;;;;;4970424;28;20501;-73
2022/11/15 12:16:58;;;;;;;12.68;11.32;;;;;;;;;;4987526;28;20521;-73
2022/11/15 12:19:24;;;;;;;12.05;11.07;;;;;;;;;;4971981;28;20030;-73
2022/11/15 12:21:55;;;;;;;13.10;11.63;;;;;;;;;;4966558;28;20042;-73
2022/11/15 12:24:29;;;;;;;12.32;11.25;;;;;;;;;;4974343;28;20741;-73
2022/11/15 12:27:03;;;;;;;11.73;10.60;;;;;;;;;;4974001;28;20070;-74
2022/11/15 12:29:43;;;;;;;13.73;11.10;;;;;;;;;;4969008;28;20399;-74
2022/11/15 12:32:24;;;;;;;11.35;10.25;;;;;;;;;;4970975;28;20035;-73
2022/11/15 12:34:50;;;;;;;11.90;10.70;;;;;;;;;;4974758;28;20042;-73
2022/11/15 12:37:38;;;;;;;11.95;10.80;;;;;;;;;;4974317;28;20039;-73
2022/11/15 12:40:12;;;;;;;11.77;10.80;;;;;;;;;;4963459;28;20077;-73
2022/11/15 12:42:56;;;;;;;15.25;13.60;;;;;;;;;;4971946;28;20512;-73
2022/11/15 12:45:30;;;;;;;12.80;11.68;;;;;;;;;;4976091;28;20129;-73
2022/11/15 12:48:16;;;;;;;12.93;11.93;;;;;;;;;;4970033;28;20035;-75
2022/11/15 12:50:51;;;;;;;13.85;12.60;;;;;;;;;;4973906;28;20079;-75
2022/11/15 12:53:23;;;;;;;13.73;12.38;;;;;;;;;;4980405;28;20134;-75
2022/11/15 12:56:16;;;;;;;13.65;12.10;;;;;;;;;;4975642;28;20042;-75
2022/11/15 12:58:52;;;;;;;14.75;13.32;;;;;;;;;;4964669;28;20490;-74
2022/11/15 13:01:30;;;;;;;12.80;11.55;;;;;;;;;;4975060;28;20125;-74
2022/11/15 13:04:21;;;;;;;22.05;16.17;;;;;;;;;;4974313;28;20486;-74
2022/11/15 13:06:51;;;;;;;12.55;11.43;;;;;;;;;;4972919;28;20050;-74
2022/11/15 13:09:29;;;;;;;14.05;12.30;;;;;;;;;;4971378;28;20089;-74
2022/11/15 13:11:56;;;;;;;18.00;14.40;;;;;;;;;;4982478;28;20038;-75
2022/11/15 13:14:36;;;;;;;13.23;11.38;;;;;;;;;;4973409;28;20035;-74
2022/11/15 13:17:16;;;;;;;13.40;11.98;;;;;;;;;;4976966;28;20038;-74
2022/11/15 13:19:42;;;;;;;;;;;;;;;;;;4978064;28;20042;-74
2022/11/15 13:24:56;;;;;;;12.07;10.32;;;;;;;;;;4970436;28;20482;-74
2022/11/15 13:27:22;;;;;;;11.88;10.75;;;;;;;;;;4978337;28;20109;-74
2022/11/15 13:29:48;;;;;;;15.23;13.93;;;;;;;;;;4978358;28;20633;-74
2022/11/15 13:32:15;;;;;;;12.77;11.57;;;;;;;;;;4978293;28;20038;-74
2022/11/15 13:34:46;;;;;;;13.73;12.30;;;;;;;;;;4971093;28;20059;-74
2022/11/15 13:37:21;;;;;;;14.05;12.68;;;;;;;;;;4967820;28;20046;-74
2022/11/15 13:39:48;;;;;;;12.48;11.38;;;;;;;;;;4976775;28;20469;-75
2022/11/15 13:42:19;;;;;;;17.27;13.32;;;;;;;;;;4969823;28;20031;-75
2022/11/15 13:44:56;;;;;;;22.95;15.85;;;;;;;;;;4974340;28;20085;-75
2022/11/15 13:47:26;;;;;;;17.17;11.82;;;;;;;;;;4975636;28;20490;-73
2022/11/15 13:49:52;;;;;;;15.63;12.05;;;;;;;;;;4974539;28;20046;-75
2022/11/15 13:52:18;;;;;;;13.00;11.82;;;;;;;;;;4976153;28;20034;-75
2022/11/15 13:55:01;;;;;;;13.05;11.85;;;;;;;;;;4977794;28;20070;-75
2022/11/15 13:57:35;;;;;;;14.15;12.35;;;;;;;;;;4975865;28;20034;-75
2022/11/15 14:00:04;;;;;;;13.15;11.85;;;;;;;;;;4959061;28;20510;-75
2022/11/15 14:02:37;;;;;;;12.77;11.48;;;;;;;;;;4979130;28;20052;-75
2022/11/15 14:05:15;;;;;;;15.25;12.30;;;;;;;;;;4975816;28;20173;-75
2022/11/15 14:07:56;;;;;;;13.27;11.90;;;;;;;;;;4968388;28;20046;-75
2022/11/15 14:10:29;;;;;;;13.10;11.90;;;;;;;;;;4974015;28;20114;-74
2022/11/15 14:12:55;;;;;;;12.95;11.68;;;;;;;;;;4960718;28;20294;-75
2022/11/15 14:15:35;;;;;;;13.15;11.18;;;;;;;;;;4960091;28;20406;-75
2022/11/15 14:18:01;;;;;;;12.23;11.00;;;;;;;;;;4968767;28;20046;-75
2022/11/15 14:20:33;;;;;;;12.35;11.23;;;;;;;;;;4972607;28;20034;-75
2022/11/15 14:23:23;;;;;;;12.98;11.70;;;;;;;;;;4961854;28;20034;-75
2022/11/15 14:25:54;;;;;;;12.27;11.18;;;;;;;;;;4957612;28;20059;-75
2022/11/15 14:28:24;;;;;;;12.90;11.02;;;;;;;;;;4962436;28;20050;-74
2022/11/15 14:30:52;;;;;;;14.18;12.98;;;;;;;;;;4975905;28;20058;-73
2022/11/15 14:33:24;;;;;;;19.60;14.90;;;;;;;;;;4958183;28;20070;-74
2022/11/15 14:35:51;;;;;;;14.80;13.40;;;;;;;;;;4977326;28;20062;-75
2022/11/15 14:38:17;;;;;;;21.70;16.70;;;;;;;;;;4967318;28;20038;-75
2022/11/15 14:40:43;;;;;;;14.55;12.93;;;;;;;;;;4971294;28;20053;-74
2022/11/15 14:43:12;;;;;;;14.20;12.57;;;;;;;;;;4975787;28;20054;-74
2022/11/15 14:45:38;;;;;;;17.65;13.20;;;;;;;;;;4972919;28;20047;-75
2022/11/15 14:48:04;;;;;;;14.60;13.07;;;;;;;;;;4958974;28;20490;-74
2022/11/15 14:50:32;;;;;;;16.33;12.88;;;;;;;;;;4980063;28;20042;-75
2022/11/15 14:52:57;;;;;;;15.40;11.65;;;;;;;;;;4975768;28;20130;-74
2022/11/15 14:55:26;;;;;;;25.58;16.30;;;;;;;;;;4973174;28;20114;-74
2022/11/15 14:57:52;;;;;;;43.42;24.08;;;;;;;;;;4977152;28;20109;-74
2022/11/15 15:00:18;;;;;;;30.48;19.65;;;;;;;;;;4965286;28;20121;-74
2022/11/15 15:02:45;;;;;;;13.25;11.88;;;;;;;;;;4973403;28;20039;-74
2022/11/15 15:05:20;;;;;;;22.10;17.73;;;;;;;;;;4971719;28;20046;-74
2022/11/15 15:07:46;;;;;;;13.73;12.52;;;;;;;;;;4961166;28;20456;-74
2022/11/15 15:10:13;;;;;;;15.20;13.35;;;;;;;;;;4974676;28;20035;-74
2022/11/15 15:12:38;;;;;;;15.43;13.98;;;;;;;;;;4971643;28;20051;-74
2022/11/15 15:15:05;;;;;;;18.50;13.25;;;;;;;;;;4970258;28;20513;-74
2022/11/15 15:17:31;;;;;;;15.32;12.15;;;;;;;;;;4981975;28;20044;-74
2022/11/15 15:19:56;;;;;;;13.30;12.00;;;;;;;;;;4977455;28;20034;-74
2022/11/15 15:22:30;;;;;;;13.27;12.13;;;;;;;;;;4958722;28;20379;-75
2022/11/15 15:24:56;;;;;;;13.05;11.75;;;;;;;;;;4978937;28;20025;-74
2022/11/15 15:27:21;;;;;;;15.77;12.52;;;;;;;;;;4971065;28;20042;-74
2022/11/15 15:29:47;;;;;;;14.57;12.10;;;;;;;;;;4955254;28;20050;-74
2022/11/15 15:32:13;;;;;;;21.33;13.65;;;;;;;;;;4961729;28;20094;-74
2022/11/15 15:34:39;;;;;;;20.60;14.65;;;;;;;;;;4979446;28;20138;-74
2022/11/15 15:37:26;;;;;;;21.05;14.32;;;;;;;;;;4970934;28;20031;-74
2022/11/15 15:39:55;;;;;;;13.95;12.60;;;;;;;;;;4971910;28;20031;-74
2022/11/15 15:42:22;;;;;;;17.42;11.55;;;;;;;;;;4973113;28;20177;-73
2022/11/15 15:44:51;;;;;;;13.00;11.65;;;;;;;;;;4978317;28;20553;-74
2022/11/15 15:47:20;;;;;;;11.57;10.48;;;;;;;;;;4971204;28;20510;-73
2022/11/15 15:49:47;;;;;;;11.05;10.13;;;;;;;;;;4964458;28;20045;-73
2022/11/15 15:52:12;;;;;;;11.43;10.48;;;;;;;;;;4974580;28;20223;-73
2022/11/15 15:54:39;;;;;;;10.00;9.30;;;;;;;;;;4963243;28;20061;-73